Thursday, October 19, 2017, 7:05 AM EDT
Back to Local

KCLE, Cleveland-hopkins International

Location: Cleveland, OH, United States Lat: 41.4
Local Time: 7:05 AM EDT (11:05 GMT) Lon: -81.85
Time Zone: US/Eastern Elev: 790 ft

Show me the last for .
Show Coded

Time T Td Feel RH Dir Speed Gust Alt SLP Vis Weather Sky Remarks
2017-10-19 06:51 55 43 - 63 190° 13 - 30.15 30.15 10 FEW250 None
2017-10-19 05:51 55 43 - 63 190° 10 - 30.16 30.15 10 CLR None
2017-10-19 04:51 54 43 - 66 210° 9 - 30.17 30.16 10 CLR None
2017-10-19 03:51 54 42 - 64 200° 9 - 30.16 30.15 10 CLR None
2017-10-19 02:51 55 42 - 61 200° 10 - 30.17 30.16 10 CLR None
2017-10-19 01:51 56 41 - 57 190° 9 - 30.18 30.17 10 CLR 6-hr Min Temp (2am): 53.1°F
6-hr Max Temp (2am): 59.0°F
2017-10-19 00:51 57 40 - 52 210° 10 - 30.18 30.17 10 CLR 24-hr Min Temp (1am): 46.9°F
24-hr Max Temp (1am): 70.0°F
2017-10-18 23:51 58 40 - 51 200° 12 - 30.17 30.16 10 CLR None
2017-10-18 22:51 59 40 - 49 190° 9 - 30.18 30.17 10 CLR None
2017-10-18 21:51 56 41 - 57 180° 9 - 30.18 30.18 10 FEW250 None
2017-10-18 20:51 57 42 - 57 180° 7 - 30.19 30.19 10 FEW250 None
2017-10-18 19:51 59 42 - 53 170° 9 - 30.19 30.19 10 FEW250 6-hr Min Temp (8pm): 57.9°F
6-hr Max Temp (8pm): 70.0°F
2017-10-18 18:51 63 41 - 44 180° 7 - 30.20 30.20 10 FEW250 None
2017-10-18 17:51 68 41 - 37 190° 10 - 30.19 30.19 10 CLR None
2017-10-18 16:51 69 42 - 37 200° 10 - 30.20 30.20 10 CLR None
2017-10-18 15:51 70 42 - 36 180° 14 21 30.22 30.21 10 CLR None
2017-10-18 14:51 70 43 - 37 170° 14 18 30.23 30.23 10 CLR None
2017-10-18 13:51 68 41 - 37 190° 14 22 30.26 30.26 10 CLR 6-hr Min Temp (2pm): 46.9°F
6-hr Max Temp (2pm): 69.1°F
2017-10-18 12:51 67 43 - 41 190° 9 - 30.30 30.29 10 CLR None
2017-10-18 11:51 65 44 - 46 190° 8 - 30.32 30.32 10 CLR None
2017-10-18 10:51 61 44 - 53 200° 8 - 30.33 30.33 10 CLR None
2017-10-18 09:51 57 42 - 57 200° 9 - 30.33 30.33 10 CLR None
2017-10-18 08:51 51 41 - 68 200° 7 - 30.33 30.34 10 CLR None
2017-10-18 07:51 47 40 46 76 190° 3 - 30.32 30.32 10 CLR 6-hr Min Temp (8am): 46.9°F
6-hr Max Temp (8am): 54.0°F

Support USWX by starting your Amazon purchase here.